Tiempo atmosférico en la estación meteorológica de Cuenca, Cuenca (945 m.)



Fecha
DESCASC
Temp. máxima en grados centígrados (hora)
DESCASC
Temp. mínima en grados centígrados (hora)
DESCASC
Temp. media en grados centígrados
DESCASC
Racha de viento máxima en m/sg (hora)
DESCASC
Velocidad máxima media en intervalos de 10 minutos(hora)
DESCASC
Precipitaciones diarias en mm
DESCASC
Precipitaciones de 00:00 a 06:00 en mm
DESCASC
Precipitaciones de 06:00 a 12:00 en mm
DESCASC
Precipitaciones de 12:00 a 18:00 en mm
DESCASC
Precipitaciones de 18:00 a 24:00 en mm
DESCASC
18-02-2018 13.8 (16:20) 0.1 (08:20) 7 7.22 (20:00) 4.44 (19:50) 0 0 0 0 0
17-02-2018 16.8 (16:00) 4.7 (02:50) 10.7 8.61 (12:50) 3.61 (16:40) 0 0 0 0 0
16-02-2018 18.1 (16:30) 4.1 (08:00) 11.1 5.83 (13:50) 3.06 (14:00) 0 0 0 0 0
15-02-2018 14.9 (16:30) 6.4 (00:00) 10.6 8.89 (15:20) 3.89 (16:40) 0 0 0 0 0
14-02-2018 8.1 (17:00) 4.9 (00:00) 6.5 8.89 (00:30) 3.61 (01:20) 0 0 0 0 0
13-02-2018 7.9 (14:50) -4.8 (-00:0) 1.5 9.72 (16:40) 3.89 (16:50) 0 0 0 0 0
12-02-2018 7.7 (00:00) -0.5 (-00:0) 3.6 8.89 (16:40) 3.89 (17:20) 1 0.6 0.4 0 0
11-02-2018 13.3 (15:50) -0.8 (-00:0) 6.3 7.22 (14:20) 3.61 (13:10) 0 0 0 0 0
10-02-2018 6 (14:30) -0.6 (-00:0) 2.7 13.33 (13:00) 3.33 (14:10) 0 0 0 0 0
09-02-2018 5.1 (14:40) -4.3 (-00:0) 0.4 8.89 (12:30) 4.44 (14:50) 0 0 0 0 0
08-02-2018 3.9 (12:20) -6.4 (-00:0) -1.3 8.06 (14:00) 3.06 (14:00) 0 0 0 0 0
07-02-2018 5.7 (14:50) -4.6 (-00:0) 0.5 9.17 (17:20) 3.33 (17:20) 0 0 0 0 0
06-02-2018 3.5 (13:10) -0.7 (-00:0) 1.4 8.89 (16:50) 2.5 (01:40) 1.6 1.4 0.2 0 0
05-02-2018 2.3 (14:10) -0.6 (-00:0) 0.8 7.78 (11:40) 3.89 (11:40) 3.6 1.6 2 0 0
04-02-2018 4 (00:00) 0.2 (00:00) 2.1 5.56 (16:40) 3.33 (16:10) 8.2 5.2 3 0 0
03-02-2018 8.3 (16:20) -1.5 (-00:0) 3.4 9.72 (14:10) 3.89 (13:50) 0 0 0 0 0
02-02-2018 6.9 (14:50) -1.2 (-00:0) 2.9 12.5 (15:30) 3.61 (14:20) 0 0 0 0 0
01-02-2018 6.8 (15:00) -1.4 (-00:0) 2.7 10.28 (20:40) 3.33 (20:40) 1 0 0 0.4 0.6
31-01-2018 15 (16:40) -1.9 (-00:0) 6.6 5.28 (18:30) 2.5 (18:30) 0 0 0 0 0
30-01-2018 14.3 (16:10) -1.7 (-00:0) 6.3 7.78 (14:50) 4.17 (13:30) 0 0 0 0 0
29-01-2018 14.7 (16:40) 0 (00:00) 7.3 5.83 (03:50) 3.61 (03:50) 0 0 0 0 0
28-01-2018 10 (17:30) 0.2 (00:00) 5.1 10.28 (08:10) 3.61 (08:30) 0 0 0 0 0
27-01-2018 8.5 (13:40) 1 (00:00) 4.8 8.89 (10:10) 3.89 (17:00) 0 0 0 0 0
26-01-2018 6.5 (13:40) 1 (00:00) 3.8 10.56 (13:50) 3.61 (02:50) 4.8 4.6 0.2 0 0
25-01-2018 12.4 (13:10) 1.4 (00:00) 6.9 8.06 (13:40) 4.17 (14:30) 8.8 0 0 0.2 8.6
24-01-2018 18 (16:50) 0 (00:00) 9 5 (15:50) 2.5 (13:10) 0 0 0 0 0
23-01-2018 18.9 (16:00) -0.7 (-00:0) 9.1 5.28 (15:30) 2.5 (16:00) 0 0 0 0 0
22-01-2018 18.2 (15:50) 2.9 (00:00) 10.6 7.78 (17:30) 3.33 (14:50) 0 0 0 0 0

Gráficas

Temp. máximas Temp. mínimas Temp. medias Precipitaciones Rachas de viento máximas Velocidades máximas media en intervalos de 10 minutos

Datos horarios

Fecha y hora oficial Temperatura (ºC) Velocidad del viento (km/h) Dirección del viento Racha (km/h) Dirección de racha Precipitación (mm) Presión (hPa) Tendencia (hPa) Humedad (%)
2018-02-20 23:00:00 5 8 Norte 26 Nordeste 0 905.1 -0.1 63
2018-02-20 22:00:00 5.9 6 Norte 30 Norte 0 905.3 0 61
2018-02-20 21:00:00 6.6 9 Norte 35 Norte 0 905.4 0.2 57
2018-02-20 20:00:00 8 8 Norte 32 Norte 0 905.2 0 58
2018-02-20 19:00:00 9.4 7 Norte 37 Norte 0 905.3 -0.1 57
2018-02-20 18:00:00 11 9 Norte 29 Noroeste 0 905.2 -0.7 53
2018-02-20 17:00:00 11.2 13 Norte 34 Norte 0 905.2 -1.6 53
2018-02-20 16:00:00 11.1 11 Noroeste 27 Noroeste 0 905.4 -1.7 54
2018-02-20 15:00:00 11 9 Norte 33 Noroeste 0 905.9 -1.5 54
2018-02-20 14:00:00 10.3 7 Noroeste 29 Noroeste 0 906.8 -0.9 57
2018-02-20 13:00:00 10.1 8 Noroeste 34 Norte 0 907.1 -0.1 57
2018-02-20 12:00:00 9.7 9 Norte 33 Nordeste 0 907.4 0.6 60
2018-02-20 11:00:00 8.8 7 Noroeste 26 Noroeste 0 907.7 1.2 65
2018-02-20 10:00:00 8 8 Noroeste 26 Noroeste 0 907.2 0.7 70
2018-02-20 09:00:00 7.2 6 Norte 22 Norte 0 906.8 0.1 75
2018-02-20 08:00:00 6.7 6 Noroeste 21 Norte 0 906.5 -0.3 79
2018-02-20 07:00:00 7.2 6 Norte 20 Nordeste 0 906.5 -0.8 75
2018-02-20 06:00:00 6.6 4 Noroeste 20 Oeste 0 906.7 -0.9 80
2018-02-20 05:00:00 6.5 8 Noroeste 20 Noroeste 0 906.8 -1.2 83
2018-02-20 04:00:00 6.2 3 Noroeste 19 Norte 0 907.3 -0.8 83
2018-02-20 03:00:00 6.3 4 Norte 16 Norte 0 907.6 -0.5 82
2018-02-20 02:00:00 5.8 5 Norte 14 Norte 0 908 -0.6 81
2018-02-20 01:00:00 6.3 5 Norte 14 Norte 0 908.1 -0.3 78
2018-02-20 00:00:00 6.8 5 Norte 13 Norte 0 908.1 -0.2 76
2018-02-19 23:00:00 7.3 3 Noroeste 14 Norte 0 908.6 0.3 73
2018-02-19 22:00:00 7.7 4 Norte 18 Norte 0 908.4 0.4 73
2018-02-19 21:00:00 8.2 4 Noroeste 14 Noroeste 0 908.3 1 70
2018-02-19 20:00:00 9.2 4 Noroeste 23 Norte 0 908.3 1.4 64
2018-02-19 19:00:00 10.7 5 Norte 26 Norte 0 908 1.1 56
2018-02-19 18:00:00 13 5 Norte 28 Norte 0 907.3 0.4 44
2018-02-19 17:00:00 14.1 6 Noroeste 23 Noroeste 0 906.9 -0.6 41
2018-02-19 16:00:00 15.4 8 Norte 26 Nordeste 0 906.9 -1.1 39
2018-02-19 15:00:00 15.1 7 Noroeste 22 Noroeste 0 906.9 -1.7 38
2018-02-19 14:00:00 14.9 8 Norte 23 Norte 0 907.5 -1.2 39
2018-02-19 13:00:00 14 6 Norte 19 Nordeste 0 908 -1 42
2018-02-19 12:00:00 11.9 6 Norte 21 Norte 0 908.6 -0.6 49
2018-02-19 11:00:00 9.5 6 Norte 19 Norte 0 908.7 -0.3 60
2018-02-19 10:00:00 5.2 3 Noroeste 11 Norte 0 909 0.4 75
2018-02-19 09:00:00 1.4 3 Norte 8 Norte 0 909.2 0.7 88
2018-02-19 08:00:00 1.4 2 Norte 5 Noroeste 0 909 0.4 86
2018-02-19 07:00:00 2 0 Calma 7 Oeste 0 908.6 -0.2 84
2018-02-19 06:00:00 3.3 2 Norte 11 Noroeste 0 908.5 -0.8 82
2018-02-19 05:00:00 4 6 Noroeste 13 Noroeste 0 908.6 -1 81
2018-02-19 04:00:00 3.7 4 Noroeste 10 Nordeste 0 908.8 -1.3 81
2018-02-19 03:00:00 3.7 4 Norte 10 Norte 0 909.3 -1.1 80
2018-02-19 02:00:00 4.3 4 Norte 8 Norte 0 909.6 -1 75
2018-02-19 01:00:00 5.1 4 Norte 10 Norte 0 910.1 -0.8 72
2018-02-19 00:00:00 5.5 4 Norte 10 Norte 0 910.4 -0.4 69
2018-02-18 23:00:00 6.2 5 Norte 12 Norte 0 910.6 -0.2 63
2018-02-18 22:00:00 6.7 3 Nordeste 12 Oeste 0 910.9 0.7 57
2018-02-18 21:00:00 7.4 7 Nordeste 25 Nordeste 0 910.8 1.3 55
2018-02-18 20:00:00 8.3 14 Nordeste 26 Nordeste 0 910.8 1.3 48
2018-02-18 19:00:00 10.7 5 Norte 21 Norte 0 910.2 0.3 34
2018-02-18 18:00:00 13 6 Norte 22 Noroeste 0 909.5 -0.9 27
2018-02-18 17:00:00 13.3 9 Noroeste 25 Noroeste 0 909.5 -1.7 27
2018-02-18 16:00:00 13.5 7 Norte 25 Noroeste 0 909.9 -2 25
2018-02-18 15:00:00 13.1 7 Noroeste 22 Noroeste 0 910.4 -2.2 28
2018-02-18 14:00:00 11.7 6 Noroeste 16 Noroeste 0 911.2 -1.8 35
2018-02-18 13:00:00 10.9 6 Oeste 12 Sudoeste 0 911.9 -1.1 40
2018-02-18 12:00:00 9 5 Sudoeste 9 Sudoeste 0 912.6 -0.5 48
2018-02-18 11:00:00 6.6 5 Sur 10 Sur 0 913 0.3 59
2018-02-18 10:00:00 3.3 5 Norte 13 Norte 0 913 0.3 70
2018-02-18 09:00:00 0.6 4 Noroeste 9 Noroeste 0 913.1 0.2 81
2018-02-18 08:00:00 0.6 2 Este 12 Norte 0 912.7 0 85
2018-02-18 07:00:00 1.5 4 Norte 9 Norte 0 912.7 -0.2 80
2018-02-18 06:00:00 2.3 3 Oeste 19 Norte 0 912.9 -0.3 77
2018-02-18 05:00:00 3.1 9 Norte 17 Nordeste 0 912.7 -0.6 75
2018-02-18 04:00:00 3.9 4 Norte 15 Nordeste 0 912.9 -0.6 77
2018-02-18 03:00:00 5.1 6 Norte 10 Norte 0 913.2 -0.2 76
2018-02-18 02:00:00 5.8 3 Noroeste 13 Noroeste 0 913.3 0.1 75
2018-02-18 01:00:00 6.4 3 Nordeste 12 Noroeste 0 913.5 0.6 73
2018-02-18 00:00:00 7.1 3 Norte 8 Noroeste 0 913.4 0.8 73
2018-02-17 23:00:00 7.4 4 Nordeste 11 Nordeste 0 913.2 0.8 72
2018-02-17 22:00:00 7.9 5 Norte 19 Norte 0 912.9 0.9 72
2018-02-17 21:00:00 8.6 9 Norte 22 Norte 0 912.6 1.2 71
2018-02-17 20:00:00 9.6 5 Norte 23 Nordeste 0 912.4 1.6 68
2018-02-17 19:00:00 10.3 9 Norte 29 Norte 0 912 1.3 65
2018-02-17 18:00:00 12.9 8 Norte 28 Noroeste 0 911.4 0.5 56
2018-02-17 17:00:00 15.1 12 Noroeste 28 Noroeste 0 910.8 -0.5 48
2018-02-17 16:00:00 16.3 6 Norte 22 Norte 0 910.7 -1.4 41
2018-02-17 15:00:00 15 9 Noroeste 26 Noroeste 0 910.9 -1.6 46
2018-02-17 14:00:00 16.3 9 Noroeste 29 Noroeste 0 911.3 -1.2 50
2018-02-17 13:00:00 15.4 5 Noroeste 31 Oeste 0 912.1 -0.3 53
2018-02-17 12:00:00 13.2 8 Oeste 18 Oeste 0 912.5 0 66
2018-02-17 11:00:00 11.8 4 Norte 16 Norte 0 912.5 0.2 70
2018-02-17 10:00:00 8.4 6 Norte 18 Norte 0 912.4 0.1 88
2018-02-17 09:00:00 6.3 4 Noroeste 11 Noroeste 0 912.5 0.2 95
2018-02-17 08:00:00 6.7 6 Norte 16 Noroeste 0 912.3 0 94
2018-02-17 07:00:00 6.4 5 Noroeste 16 Noroeste 0 912.3 0 95
2018-02-17 06:00:00 5.5 5 Oeste 9 Noroeste 0 912.3 -0.4 94
2018-02-17 05:00:00 5.3 4 Oeste 11 Noroeste 0 912.3 -0.5 95
2018-02-17 04:00:00 5.8 4 Noroeste 11 Noroeste 0 912.3 -0.8 96
2018-02-17 03:00:00 4.7 3 Oeste 9 Noroeste 0 912.7 -0.5 96
2018-02-17 02:00:00 5.5 0 Calma 14 Norte 0 912.8 -0.2 92
2018-02-17 01:00:00 5.9 4 Norte 10 Norte 0 913.1 0.3 88
2018-02-17 00:00:00 6.6 4 Oeste 7 Sudoeste 0 913.2 0.5 89
2018-02-16 23:00:00 7.9 0 Calma 6 Sudoeste 0 913 0.3 86
2018-02-16 22:00:00 9.3 0 Calma 5 Este 0 912.8 0.6 83
2018-02-16 21:00:00 10.3 4 Sudeste 9 Oeste 0 912.7 0.7 78
2018-02-16 20:00:00 11.9 4 Sur 8 Sur 0 912.7 1 72
2018-02-16 19:00:00 13.2 2 Oeste 13 Noroeste 0 912.2 0.4 65
2018-02-16 18:00:00 14.6 6 Noroeste 17 Noroeste 0 912 -0.3 63
2018-02-16 17:00:00 17.2 8 Oeste 20 Oeste 0 911.7 -1.2 54
2018-02-16 16:00:00 17.1 5 Oeste 16 Sudoeste 0 911.8 -1.8 52
2018-02-16 15:00:00 15.8 7 Sudoeste 18 Oeste 0 912.3 -2 54
2018-02-16 14:00:00 16.6 11 Oeste 21 Noroeste 0 912.9 -1.7 57
2018-02-16 13:00:00 16.7 8 Sur 19 Sudeste 0 913.6 -1 52
2018-02-16 12:00:00 12.8 3 Sudoeste 7 Sur 0 914.3 -0.2 68
2018-02-16 11:00:00 8.5 3 Sudoeste 5 Oeste 0 914.6 0.2 83
2018-02-16 10:00:00 5.4 3 Oeste 7 Noroeste 0 914.6 0.1 94
2018-02-16 09:00:00 4.5 3 Sudoeste 4 Sudeste 0 914.5 -0.2 97
2018-02-16 08:00:00 4.2 4 Sudeste 6 Sudeste 0 914.4 0 99
2018-02-16 07:00:00 4.4 0 Calma 3 Este 0 914.5 -0.2 99
2018-02-16 06:00:00 4.2 0 Calma 8 Sudeste 0 914.7 -0.2 99
2018-02-16 05:00:00 4.3 3 Sudeste 9 Sudeste 0 914.4 -0.8 100
2018-02-16 04:00:00 5.1 3 Este 8 Noroeste 0 914.7 -1 98
2018-02-16 03:00:00 5.6 3 Noroeste 8 Noroeste 0 914.9 -0.8 99
2018-02-16 02:00:00 5.8 4 Sudeste 6 Sudeste 0 915.2 -0.6 98
2018-02-16 01:00:00 6 3 Sudeste 6 Norte 0 915.7 -0.3 98
2018-02-16 00:00:00 6.4 4 Oeste 10 Norte 0 915.7 -0.2 95
2018-02-15 23:00:00 7.6 4 Norte 12 Noroeste 0 915.8 -0.3 92
2018-02-15 22:00:00 7.9 5 Noroeste 19 Noroeste 0 916 0.5 90
2018-02-15 21:00:00 8.3 4 Norte 14 Noroeste 0 915.9 1.1 88
2018-02-15 20:00:00 8.8 7 Noroeste 18 Noroeste 0 916.1 1.6 87
2018-02-15 19:00:00 10 8 Noroeste 22 Noroeste 0 915.5 1 82
2018-02-15 18:00:00 13 8 Noroeste 24 Norte 0 914.8 0.1 67
2018-02-15 17:00:00 14.1 12 Noroeste 27 Norte 0 914.5 -0.5 64
2018-02-15 16:00:00 14.4 11 Noroeste 32 Noroeste 0 914.5 -0.8 63
2018-02-15 15:00:00 14.4 12 Noroeste 30 Noroeste 0 914.7 -1.2 62
2018-02-15 14:00:00 14.1 9 Noroeste 24 Noroeste 0 915 -1 63
2018-02-15 13:00:00 13.9 6 Noroeste 17 Norte 0 915.3 -0.3 63
2018-02-15 12:00:00 11.8 5 Norte 18 Nordeste 0 915.9 0.6 72
2018-02-15 11:00:00 8.5 8 Norte 15 Nordeste 0 916 1.1 87
2018-02-15 10:00:00 7.5 4 Norte 15 Norte 0 915.6 1.1 92
2018-02-15 09:00:00 6.7 5 Norte 13 Norte 0 915.3 1.3 95
2018-02-15 08:00:00 6.6 5 Norte 14 Norte 0 914.9 1.3 94
2018-02-15 07:00:00 6.6 4 Noroeste 12 Norte 0 914.5 1 93
2018-02-15 06:00:00 6.5 5 Noroeste 13 Oeste 0 914 0.5 94
2018-02-15 05:00:00 6.5 5 Noroeste 16 Noroeste 0 913.6 0.3 93
2018-02-15 04:00:00 6.7 5 Noroeste 14 Norte 0 913.5 0.3 92
2018-02-15 03:00:00 6.7 3 Norte 10 Nordeste 0 913.5 0.4 92
2018-02-15 02:00:00 6.7 4 Norte 13 Norte 0 913.3 0.2 91
2018-02-15 01:00:00 6.8 4 Norte 19 Noroeste 0 913.2 0.5 90
2018-02-15 00:00:00 6.8 6 Noroeste 17 Noroeste 0 913.1 0.6 90
2018-02-14 23:00:00 6.9 6 Noroeste 19 Noroeste 0 913.1 0.8 90
2018-02-14 22:00:00 7 6 Noroeste 19 Noroeste 0 912.7 1 89
2018-02-14 21:00:00 7.2 5 Noroeste 19 Noroeste 0 912.5 1.1 88
2018-02-14 20:00:00 7.4 7 Noroeste 22 Noroeste 0 912.3 1.3 86
2018-02-14 19:00:00 7.7 10 Noroeste 24 Oeste 0 911.7 0.9 83
2018-02-14 18:00:00 7.9 7 Noroeste 29 Oeste 0 911.4 0.6 81
2018-02-14 17:00:00 8.1 9 Noroeste 20 Oeste 0 911 0 79
2018-02-14 16:00:00 7.7 9 Noroeste 21 Oeste 0 910.8 -0.6 81
2018-02-14 15:00:00 7.5 10 Oeste 24 Noroeste 0 910.8 -0.9 80
2018-02-14 14:00:00 7 8 Oeste 26 Oeste 0 911 -0.4 85
2018-02-14 13:00:00 6.6 8 Oeste 18 Oeste 0 911.4 0.4 86
2018-02-14 12:00:00 5.9 6 Oeste 21 Noroeste 0 911.7 1.5 88
2018-02-14 11:00:00 5.1 6 Oeste 23 Oeste 0 911.4 1.5 92
2018-02-14 10:00:00 5.2 6 Oeste 24 Oeste 0 911 1.5 91
2018-02-14 09:00:00 5.1 6 Noroeste 21 Noroeste 0 910.2 1.2 90
2018-02-14 08:00:00 5 6 Oeste 17 Noroeste 0 909.9 0.9 90
2018-02-14 07:00:00 5 8 Oeste 23 Oeste 0 909.5 0.6 89
2018-02-14 06:00:00 5.1 5 Oeste 17 Noroeste 0 909 -0.1 88
2018-02-14 05:00:00 5.2 5 Noroeste 14 Noroeste 0 909 -0.1 86
2018-02-14 04:00:00 5.4 8 Noroeste 22 Noroeste 0 908.9 -0.2 85
2018-02-14 03:00:00 5.3 9 Noroeste 25 Noroeste 0 909.1 0.1 86
2018-02-14 02:00:00 5.2 11 Noroeste 31 Noroeste 0 909.1 -0.1 86
2018-02-14 01:00:00 5.1 13 Noroeste 32 Oeste 0 909.1 0.3 85
2018-02-14 00:00:00 5.2 10 Noroeste 28 Noroeste 0 909 -0.1 83
2018-02-13 23:00:00 5.4 7 Noroeste 27 Noroeste 0 909.2 0.4 79
2018-02-13 22:00:00 5.5 10 Noroeste 24 Noroeste 0 908.8 0.2 74
2018-02-13 21:00:00 5.8 7 Noroeste 21 Noroeste 0 909.1 0.8 66
2018-02-13 20:00:00 5.9 5 Noroeste 21 Oeste 0 908.8 0.6 54
2018-02-13 19:00:00 6 8 Oeste 26 Noroeste 0 908.6 0.3 51
2018-02-13 18:00:00 6.4 14 Oeste 29 Oeste 0 908.3 -0.2 51
2018-02-13 17:00:00 6.5 14 Oeste 35 Oeste 0 908.2 -0.9 47
2018-02-13 16:00:00 6.8 12 Oeste 26 Oeste 0 908.3 -1.3 48
2018-02-13 15:00:00 7.6 12 Oeste 26 Oeste 0 908.5 -1.6 48
2018-02-13 14:00:00 6.1 11 Oeste 26 Oeste 0 909.1 -1.3 51
2018-02-13 13:00:00 6 13 Oeste 25 Noroeste 0 909.6 -0.7 49
2018-02-13 12:00:00 4.7 5 Oeste 12 Oeste 0 910.1 -0.1 55
2018-02-13 11:00:00 3.3 4 Sudoeste 9 Oeste 0 910.4 0.6 60
2018-02-13 10:00:00 -0.8 3 Sur 5 Sudeste 0 910.3 0.6 75
2018-02-13 09:00:00 -4.5 2 Oeste 4 Sudoeste 0 910.2 0.6 87
2018-02-13 08:00:00 -4.7 0 Calma 4 Oeste 0 909.8 0.1 89
2018-02-13 07:00:00 -4.5 0 Calma 4 Sudoeste 0 909.7 -0.3 88
2018-02-13 06:00:00 -4 0 Calma 4 Nordeste 0 909.6 -0.8 89
2018-02-13 05:00:00 -3.3 2 Nordeste 14 Nordeste 0 909.7 -1.1 85
2018-02-13 04:00:00 -2.6 4 Norte 9 Norte 0 910 -1 84
2018-02-13 03:00:00 -2.1 3 Oeste 9 Este 0 910.4 -0.4 82
2018-02-13 02:00:00 -1.3 4 Este 11 Norte 0 910.8 0.2 78
2018-02-13 01:00:00 -1 4 Norte 11 Norte 0 911 0.8 77
2018-02-13 00:00:00 -0.5 0 Calma 9 Norte 0 910.8 1 73
2018-02-12 23:00:00 0.3 4 Noroeste 12 Noroeste 0 910.6 1.1 68
2018-02-12 22:00:00 1.3 3 Noroeste 18 Nordeste 0 910.2 1.3 62
2018-02-12 21:00:00 2 7 Norte 21 Nordeste 0 909.8 1.7 57
2018-02-12 20:00:00 3.3 7 Norte 25 Noroeste 0 909.5 2 52
2018-02-12 19:00:00 4.4 7 Norte 29 Noroeste 0 908.9 1.4 47
2018-02-12 18:00:00 6.2 9 Noroeste 32 Noroeste 0 908.1 0.4 44
2018-02-12 17:00:00 7.1 10 Noroeste 32 Noroeste 0 907.5 -0.7 43
2018-02-12 16:00:00 6.2 6 Noroeste 25 Noroeste 0 907.5 -0.7 54
2018-02-12 15:00:00 5.9 6 Norte 21 Noroeste 0 907.7 -0.6 69
2018-02-12 14:00:00 5.3 7 Noroeste 17 Oeste 0 908.2 -0.2 78
2018-02-12 13:00:00 4.5 6 Norte 25 Noroeste 0 908.2 0.1 81
2018-02-12 12:00:00 5.5 4 Norte 22 Oeste 0.2 908.3 0.4 83
2018-02-12 11:00:00 5.8 5 Noroeste 15 Norte 0 908.4 1 82
2018-02-12 10:00:00 5.4 4 Noroeste 15 Norte 0 908.1 0.7 80
2018-02-12 09:00:00 5.4 4 Noroeste 13 Noroeste 0 907.9 0.5 90
2018-02-12 08:00:00 5.2 5 Norte 27 Norte 0 907.4 -0.3 90
2018-02-12 07:00:00 6.4 6 Noroeste 17 Noroeste 0.2 907.4 -0.8 91
2018-02-12 06:00:00 6.6 6 Noroeste 16 Noroeste 0 907.4 -1 91
2018-02-12 05:00:00 6.7 5 Noroeste 22 Noroeste 0 907.7 -1.4 91
2018-02-12 04:00:00 7 5 Noroeste 14 Oeste 0.4 908.2 -1.2 93
2018-02-12 03:00:00 7.1 2 Noroeste 6 Noroeste 0.2 908.4 -1.1 91
2018-02-12 02:00:00 7.3 0 Calma 11 Oeste 0 909.1 -0.6 86
2018-02-12 01:00:00 7.4 3 Noroeste 7 Sudoeste 0 909.4 -0.4 86
2018-02-12 00:00:00 7.7 3 Noroeste 15 Norte 0 909.5 -0.3 83
2018-02-11 23:00:00 8 4 Noroeste 13 Noroeste 0 909.7 -0.2 81
2018-02-11 22:00:00 8.2 3 Noroeste 9 Noroeste 0 909.8 0.2 77
2018-02-11 21:00:00 8.4 4 Oeste 12 Noroeste 0 909.8 0.3 75
2018-02-11 20:00:00 8.7 3 Noroeste 12 Norte 0 909.9 0.3 72
2018-02-11 19:00:00 10.2 3 Norte 13 Norte 0 909.6 -0.1 66
2018-02-11 18:00:00 11.7 6 Noroeste 21 Norte 0 909.5 -0.4 59
2018-02-11 17:00:00 12.1 9 Noroeste 24 Noroeste 0 909.6 -1 58
2018-02-11 16:00:00 13.2 6 Noroeste 26 Noroeste 0 909.7 -1.6 55
2018-02-11 15:00:00 12.6 8 Noroeste 26 Noroeste 0 909.9 -2 54
2018-02-11 14:00:00 11 11 Noroeste 26 Noroeste 0 910.6 -1.5 59
2018-02-11 13:00:00 11 7 Noroeste 22 Oeste 0 911.3 -0.7 57
2018-02-11 12:00:00 9.3 6 Norte 14 Norte 0 911.9 0.3 60
2018-02-11 11:00:00 6.3 4 Noroeste 15 Noroeste 0 912.1 1.1 64
2018-02-11 10:00:00 3.9 2 Noroeste 14 Norte 0 912 1.2 74
2018-02-11 09:00:00 1.8 5 Noroeste 17 Norte 0 911.6 1.1 85
2018-02-11 08:00:00 1.2 4 Norte 19 Norte 0 911 0.5 86
2018-02-11 07:00:00 1.5 8 Norte 21 Norte 0 910.8 0.1 81
2018-02-11 06:00:00 1.5 6 Norte 17 Norte 0 910.5 -0.3 80
2018-02-11 05:00:00 1.1 6 Noroeste 13 Noroeste 0 910.5 -0.2 81
2018-02-11 04:00:00 -0.2 4 Oeste 7 Noroeste 0 910.7 0 87
2018-02-11 03:00:00 -0.5 2 Este 8 Este 0 910.8 0.2 88
2018-02-11 02:00:00 -0.5 4 Este 7 Este 0 910.7 0.3 88
2018-02-11 01:00:00 0.6 0 Calma 12 Noroeste 0 910.7 0.1 83
2018-02-11 00:00:00 1.2 5 Norte 18 Norte 0 910.6 0 82
2018-02-10 23:00:00 1.7 6 Noroeste 17 Norte 0 910.4 -0.1 81
2018-02-10 22:00:00 2.2 3 Noroeste 16 Norte 0 910.6 0.5 78
2018-02-10 21:00:00 2.6 5 Noroeste 18 Noroeste 0 910.6 1.4 75
2018-02-10 20:00:00 3.1 8 Noroeste 25 Noroeste 0 910.5 1.4 72
2018-02-10 19:00:00 3 6 Noroeste 26 Norte 0 910.1 0.9 71
2018-02-10 18:00:00 3.9 7 Noroeste 34 Noroeste 0 909.2 0 64
2018-02-10 17:00:00 4.5 8 Noroeste 31 Norte 0 909.1 -0.4 59
2018-02-10 16:00:00 4.9 10 Norte 34 Noroeste 0 909.2 -0.8 55
2018-02-10 15:00:00 4.8 9 Noroeste 37 Noroeste 0 909.2 -1.5 55
2018-02-10 14:00:00 5.4 10 Norte 36 Norte 0 909.5 -1.2 54
2018-02-10 13:00:00 5.2 12 Norte 48 Norte 0 910 -0.6 57
2018-02-10 12:00:00 4.2 11 Norte 31 Noroeste 0 910.7 0.5 60
2018-02-10 11:00:00 4.3 6 Norte 27 Norte 0 910.7 1.2 57
2018-02-10 10:00:00 2.2 6 Norte 25 Noroeste 0 910.6 1.8 64
2018-02-10 09:00:00 -0.4 8 Norte 26 Norte 0 910.2 1 75
2018-02-10 08:00:00 -0.5 6 Norte 20 Norte 0 909.5 0.9 74
2018-02-10 07:00:00 0 6 Norte 24 Noroeste 0 908.8 -0.1 71
2018-02-10 06:00:00 0.2 8 Norte 28 Noroeste 0 909.2 -0.1 71
2018-02-10 05:00:00 0.5 9 Noroeste 28 Noroeste 0 908.6 -1.3 73
2018-02-10 04:00:00 0.8 7 Norte 39 Nordeste 0 908.9 -1.2 72
2018-02-10 03:00:00 1.1 7 Noroeste 25 Norte 0 909.3 -1 76
2018-02-10 02:00:00 -0.1 4 Noroeste 16 Noroeste 0 909.9 -0.5 92
2018-02-10 01:00:00 0.2 5 Noroeste 14 Noroeste 0 910.1 -0.6 88
2018-02-10 00:00:00 0.7 4 Norte 13 Noroeste 0 910.3 -0.1 87
2018-02-09 23:00:00 1.1 3 Norte 14 Norte 0 910.4 0.3 86
2018-02-09 22:00:00 1.2 6 Norte 17 Norte 0 910.7 0.7 86
2018-02-09 21:00:00 1.3 5 Norte 17 Norte 0 910.4 1.3 85
2018-02-09 20:00:00 1.2 5 Norte 17 Norte 0 910.1 1.5 87
2018-02-09 19:00:00 2.1 5 Noroeste 18 Norte 0 910 2 79
2018-02-09 18:00:00 3.2 9 Noroeste 23 Noroeste 0 909.1 1.4 63
2018-02-09 17:00:00 3.7 9 Noroeste 27 Noroeste 0 908.6 0.2 58
2018-02-09 16:00:00 4.6 11 Noroeste 29 Oeste 0 908 -0.9 52
2018-02-09 15:00:00 5 14 Noroeste 27 Noroeste 0 907.7 -1.8 49
2018-02-09 14:00:00 4.2 12 Noroeste 31 Noroeste 0 908.4 -0.8 52
2018-02-09 13:00:00 4.1 9 Noroeste 32 Noroeste 0 908.9 0.3 50
2018-02-09 12:00:00 3.9 7 Noroeste 23 Noroeste 0 909.5 1.2 53
2018-02-09 11:00:00 1 3 Sudoeste 10 Sudeste 0 909.2 1.3 67
2018-02-09 10:00:00 -1 3 Noroeste 9 Oeste 0 908.6 1 72
2018-02-09 09:00:00 -3.9 4 Noroeste 10 Nordeste 0 908.3 0.8 85
2018-02-09 08:00:00 -4.2 3 Norte 16 Norte 0 907.9 0.3 86
2018-02-09 07:00:00 -4.1 5 Norte 19 Norte 0 907.6 -0.1 86
2018-02-09 06:00:00 -3.6 4 Noroeste 19 Nordeste 0 907.5 -0.7 85
2018-02-09 05:00:00 -3.4 5 Norte 21 Norte 0 907.6 -0.7 87
2018-02-09 04:00:00 -2.4 10 Norte 22 Norte 0 907.7 -0.7 84
2018-02-09 03:00:00 -2.3 5 Norte 11 Norte 0 908.2 -0.3 84
2018-02-09 02:00:00 -1.8 6 Nordeste 12 Nordeste 0 908.3 -0.2 83
2018-02-09 01:00:00 -1.4 5 Norte 12 Norte 0 908.4 0 81
2018-02-09 00:00:00 -0.8 4 Norte 14 Noroeste 0 908.5 0.2 79
2018-02-08 23:00:00 -0.4 4 Noroeste 14 Norte 0 908.5 0.2 77
2018-02-08 22:00:00 0 5 Norte 15 Oeste 0 908.4 0.2 74
2018-02-08 21:00:00 0.5 5 Noroeste 18 Norte 0 908.3 0.4 71
2018-02-08 20:00:00 0.7 5 Noroeste 19 Noroeste 0 908.3 0.7 70
2018-02-08 19:00:00 1.4 6 Noroeste 18 Noroeste 0 908.2 0.5 66
2018-02-08 18:00:00 1.9 6 Noroeste 23 Norte 0 907.9 0.2 63
2018-02-08 17:00:00 2.4 6 Noroeste 24 Norte 0 907.6 -0.4 57
2018-02-08 16:00:00 2.6 5 Noroeste 22 Noroeste 0 907.7 -0.4 57
2018-02-08 15:00:00 2.9 8 Norte 27 Norte 0 907.7 -0.8 53
2018-02-08 14:00:00 3.5 11 Norte 29 Norte 0 908 -0.7 50
2018-02-08 13:00:00 3.7 7 Norte 25 Norte 0 908.1 -0.5 50
2018-02-08 12:00:00 3.5 6 Norte 20 Nordeste 0 908.5 0.1 49
2018-02-08 11:00:00 0.5 4 Sudeste 8 Sur 0 908.7 0.7 60
2018-02-08 10:00:00 -2.3 2 Sudeste 7 Oeste 0 908.6 0.9 69
2018-02-08 09:00:00 -5.2 2 Noroeste 12 Noroeste 0 908.4 0.8 80
2018-02-08 08:00:00 -5.8 5 Oeste 14 Noroeste 0 908 0.5 80
2018-02-08 07:00:00 -5.7 4 Noroeste 13 Norte 0 907.7 0.6 80
2018-02-08 06:00:00 -6.3 6 Norte 14 Norte 0 907.6 0.2 81
2018-02-08 05:00:00 -6.1 5 Noroeste 12 Norte 0 907.5 0 78
2018-02-08 04:00:00 -6.1 5 Nordeste 12 Nordeste 0 907.1 -0.5 80
2018-02-08 03:00:00 -5.4 3 Norte 14 Norte 0 907.4 0 78
2018-02-08 02:00:00 -5.2 5 Norte 13 Nordeste 0 907.5 0.3 75
2018-02-08 01:00:00 -4.2 4 Norte 12 Norte 0 907.6 0.6 73
2018-02-08 00:00:00 -3.1 4 Norte 14 Norte 0 907.4 0.5 69
2018-02-07 23:00:00 -1.8 8 Norte 19 Nordeste 0 907.2 0.7 64
2018-02-07 22:00:00 -1.6 4 Norte 9 Norte 0 907 1.1 65
2018-02-07 21:00:00 -1 3 Norte 15 Norte 0 906.9 1.9 63
2018-02-07 20:00:00 -0.4 4 Norte 12 Norte 0 906.5 2.1 60
2018-02-07 19:00:00 0.6 5 Norte 25 Nordeste 0 905.9 1.8 58
2018-02-07 18:00:00 2.5 11 Norte 33 Norte 0 905 0.9 49
2018-02-07 17:00:00 4 11 Norte 29 Norte 0 904.4 0.2 47
2018-02-07 16:00:00 4.9 9 Norte 27 Norte 0 904.1 -0.5 45
2018-02-07 15:00:00 5.2 8 Norte 26 Noroeste 0 904.1 -0.5 45
2018-02-07 14:00:00 5 6 Norte 22 Noroeste 0 904.2 0.2 47
2018-02-07 13:00:00 4.3 4 Norte 19 Norte 0 904.6 1.1 46
2018-02-07 12:00:00 2.8 5 Norte 24 Nordeste 0 904.6 1.6 51
2018-02-07 11:00:00 2.1 9 Norte 27 Nordeste 0 904 1.8 53
2018-02-07 10:00:00 -0.8 4 Sudoeste 9 Norte 0 903.5 1.8 68
2018-02-07 09:00:00 -4.4 3 Noroeste 12 Noroeste 0 903 1.5 83
2018-02-07 08:00:00 -4.5 5 Oeste 10 Oeste 0 902.2 0.8 83
2018-02-07 07:00:00 -3.5 6 Noroeste 15 Oeste 0 901.7 0.6 79
2018-02-07 06:00:00 -3.3 3 Noroeste 13 Noroeste 0 901.5 0.5 79
2018-02-07 05:00:00 -3 6 Noroeste 15 Noroeste 0 901.4 0.5 78
2018-02-07 04:00:00 -2.6 6 Noroeste 14 Noroeste 0 901.1 0.6 77
2018-02-07 03:00:00 -2.2 8 Noroeste 14 Noroeste 0 901 0.3 75
2018-02-07 02:00:00 -1.8 5 Noroeste 17 Noroeste 0 900.9 0.3 74
2018-02-07 01:00:00 -1.2 4 Noroeste 13 Norte 0 900.5 0 73
2018-02-07 00:00:00 -0.7 4 Noroeste 15 Oeste 0 900.7 0.7 73
2018-02-06 23:00:00 -0.3 5 Noroeste 20 Noroeste 0 900.6 0.7 71
2018-02-06 22:00:00 -0.1 6 Norte 23 Noroeste 0 900.5 1.1 71
2018-02-06 21:00:00 0.1 7 Noroeste 23 Noroeste 0 900 1.3 71
2018-02-06 20:00:00 0.4 6 Noroeste 23 Norte 0 899.9 1.9 71
2018-02-06 19:00:00 0.6 5 Norte 19 Noroeste 0 899.4 1.6 71
2018-02-06 18:00:00 1.2 6 Noroeste 32 Norte 0 898.7 0.8 67
2018-02-06 17:00:00 3.5 8 Noroeste 32 Norte 0 898 -0.2 58
2018-02-06 16:00:00 2.9 6 Noroeste 28 Noroeste 0 897.8 -0.5 63
2018-02-06 15:00:00 2.2 6 Norte 20 Norte 0 897.9 -0.5 69
2018-02-06 14:00:00 1.8 7 Norte 23 Norte 0 898.2 0 73
2018-02-06 13:00:00 3.2 8 Norte 26 Noroeste 0 898.3 0.5 66
2018-02-06 12:00:00 2.2 6 Norte 24 Norte 0 898.4 0.9 70
2018-02-06 11:00:00 1.7 5 Noroeste 20 Norte 0 898.2 1.2 74
2018-02-06 10:00:00 0.7 6 Noroeste 18 Noroeste 0 897.8 0.9 82
2018-02-06 09:00:00 -0.2 4 Noroeste 13 Noroeste 0 897.5 0.2 89
2018-02-06 08:00:00 -0.2 4 Noroeste 17 Norte 0 897 -0.2 93
2018-02-06 07:00:00 -0.1 4 Norte 14 Norte 0.2 896.9 -0.5 98
2018-02-06 06:00:00 -0.3 3 Oeste 8 Noroeste 0.6 897.3 0 99
2018-02-06 05:00:00 -0.4 5 Noroeste 9 Noroeste 0.4 897.2 0.2 98
2018-02-06 04:00:00 -0.2 2 Norte 7 Nordeste 0.4 897.4 0 94
2018-02-06 03:00:00 -0.1 4 Norte 14 Norte 0 897.3 -0.4 89
2018-02-06 02:00:00 -0.1 6 Norte 20 Norte 0 897 -0.8 90
2018-02-06 01:00:00 -0.3 3 Norte 14 Norte 0 897.4 -0.6 92
2018-02-06 00:00:00 -0.2 4 Norte 11 Norte 0 897.7 0.1 92
2018-02-05 23:00:00 -0.4 6 Norte 17 Norte 0 897.8 0.4 91
2018-02-05 22:00:00 -0.6 8 Norte 17 Norte 0 898 1.1 92
2018-02-05 21:00:00 -0.3 4 Norte 8 Nordeste 0 897.6 1.3 92
2018-02-05 20:00:00 -0.1 4 Este 7 Sudeste 0 897.4 1.3 93
2018-02-05 19:00:00 0.6 6 Sur 13 Sur 0 896.9 1.1 90
2018-02-05 18:00:00 1.2 4 Sur 12 Sudoeste 0 896.3 0.6 90
2018-02-05 17:00:00 1.3 6 Sudeste 14 Sur 0 896.1 0.4 90
2018-02-05 16:00:00 1.8 7 Sudoeste 15 Sur 0 895.8 0 88
2018-02-05 15:00:00 1.2 11 Sur 19 Sur 0 895.7 -0.1 93
2018-02-05 14:00:00 2.1 10 Sur 19 Sur 0 895.7 0.4 85
2018-02-05 13:00:00 1.8 12 Sur 23 Sudeste 0 895.8 0.9 86
2018-02-05 12:00:00 1.5 14 Sudeste 28 Sudeste 0 895.8 1 88
2018-02-05 11:00:00 2 12 Sudeste 26 Sudeste 0 895.3 1.1 87
2018-02-05 10:00:00 1 9 Sudeste 19 Este 0 894.9 0.6 95
2018-02-05 09:00:00 0.3 3 Sudeste 5 Sudeste 0.6 894.8 0.4 99
2018-02-05 08:00:00 0.1 2 Norte 9 Norte 0.4 894.2 -1 97
2018-02-05 07:00:00 0 3 Noroeste 17 Norte 1 894.3 -1.2 98
2018-02-05 06:00:00 0 6 Norte 14 Norte 1 894.4 -1.4 97
2018-02-05 05:00:00 0.2 3 Norte 10 Norte 0.2 895.2 -1 96
2018-02-05 04:00:00 0.1 2 Norte 10 Sudeste 0.4 895.5 -1.5 95
2018-02-05 03:00:00 0.3 3 Nordeste 13 Norte 0 895.8 -1.3 89
2018-02-05 02:00:00 0.4 5 Noroeste 11 Norte 0 896.2 -1.6 91
2018-02-05 01:00:00 0.8 5 Nordeste 12 Nordeste 0 897 -1.1 85
2018-02-05 00:00:00 1 7 Norte 18 Nordeste 0 897.1 -1.5 84
2018-02-04 23:00:00 1.1 4 Norte 14 Sudeste 0 897.8 -0.4 85
2018-02-04 22:00:00 1.1 3 Este 12 Sudeste 0 898.1 0.2 82
2018-02-04 21:00:00 1.2 4 Este 15 Este 0 898.6 0.9 86
2018-02-04 20:00:00 1 6 Sudeste 17 Sudeste 0 898.2 0.6 90
2018-02-04 19:00:00 1.2 9 Sur 18 Sur 0 897.9 0.4 89
2018-02-04 18:00:00 1.5 7 Sur 18 Sudeste 0 897.7 0.1 92
2018-02-04 17:00:00 1.9 8 Sudeste 20 Sudeste 0 897.6 -0.3 90
2018-02-04 16:00:00 2.3 11 Sudeste 19 Sur 0 897.5 -1 87
2018-02-04 15:00:00 2.2 8 Sudeste 19 Sur 0 897.6 -1.3 89
2018-02-04 14:00:00 2 10 Sudeste 17 Sudeste 0 897.9 -1 89
2018-02-04 13:00:00 1.6 10 Sudeste 18 Sudeste 0 898.5 -0.4 91
2018-02-04 12:00:00 1.7 6 Sudeste 13 Sur 0 898.9 -0.2 90
2018-02-04 11:00:00 1.3 5 Sudeste 10 Sudeste 0.8 898.9 -0.4 94
2018-02-04 10:00:00 0.5 5 Sudeste 10 Sudeste 0.4 898.9 -0.6 97
2018-02-04 09:00:00 0.3 5 Sudeste 9 Sur 0.2 899.1 -1 97
2018-02-04 08:00:00 0.2 4 Sudeste 9 Sudeste 0.8 899.3 -1.3 98
2018-02-04 07:00:00 0.4 4 Sudeste 7 Sudeste 0.8 899.5 -1.8 98
2018-02-04 06:00:00 0.4 4 Sudeste 10 Sur 0.8 900.1 -1.8 97
2018-02-04 05:00:00 0.5 6 Sur 12 Sudeste 0.8 900.6 -2.1 97
2018-02-04 04:00:00 0.6 8 Sudeste 14 Sudeste 1.8 901.3 -2.2 97
2018-02-04 03:00:00 1.1 5 Sudeste 10 Sudeste 1.8 901.9 -2 93
2018-02-04 02:00:00 3 3 Sur 10 Sudoeste 0 902.7 -2 79
2018-02-04 01:00:00 3.6 3 Oeste 10 Sur 0 903.5 -1.6 67
2018-02-04 00:00:00 4 2 Sudeste 13 Noroeste 0 903.9 -1.5 60
2018-02-03 23:00:00 4.4 7 Noroeste 17 Noroeste 0 904.7 -0.9 52
2018-02-03 22:00:00 4.6 9 Noroeste 22 Noroeste 0 905.1 -0.9 50
2018-02-03 21:00:00 4.3 6 Noroeste 13 Noroeste 0 905.4 -0.4 55
2018-02-03 20:00:00 4.8 2 Norte 12 Sudoeste 0 905.6 0 52
2018-02-03 19:00:00 5.7 8 Oeste 19 Noroeste 0 906 0.1 49
2018-02-03 18:00:00 6.5 8 Noroeste 26 Noroeste 0 905.8 -0.5 45
2018-02-03 17:00:00 7.9 10 Noroeste 26 Noroeste 0 905.6 -1.5 42
2018-02-03 16:00:00 7.8 10 Noroeste 28 Oeste 0 905.9 -1.9 42
2018-02-03 15:00:00 7.2 11 Noroeste 35 Noroeste 0 906.3 -1.9 43
2018-02-03 14:00:00 6.4 13 Noroeste 33 Noroeste 0 907.1 -1.3 45
2018-02-03 13:00:00 5.7 12 Noroeste 31 Noroeste 0 907.8 -0.5 49
2018-02-03 12:00:00 4.1 10 Noroeste 26 Noroeste 0 908.2 0.5 55
2018-02-03 11:00:00 2.8 10 Noroeste 27 Noroeste 0 908.4 1.5 60
2018-02-03 10:00:00 1.3 7 Norte 22 Norte 0 908.3 1.2 67
2018-02-03 09:00:00 -1 7 Norte 22 Norte 0 907.7 0.9 77
2018-02-03 08:00:00 -1.2 6 Norte 23 Norte 0 906.9 0.1 78
2018-02-03 07:00:00 -1.5 4 Noroeste 14 Noroeste 0 907.1 0.2 79
2018-02-03 06:00:00 -1.1 5 Noroeste 18 Noroeste 0 906.8 0.1 77
2018-02-03 05:00:00 -0.7 5 Norte 16 Noroeste 0 906.8 0.4 75
2018-02-03 04:00:00 -0.5 4 Noroeste 15 Noroeste 0 906.9 0.6 73
2018-02-03 03:00:00 -0.2 4 Norte 22 Norte 0 906.7 0.9 72
2018-02-03 02:00:00 0.2 6 Noroeste 25 Norte 0 906.4 0.9 71
2018-02-03 01:00:00 -0.5 7 Noroeste 30 Noroeste 0 906.3 1.4 74
2018-02-03 00:00:00 -0.5 6 Noroeste 24 Oeste 0 905.8 1.3 73
2018-02-02 23:00:00 0.1 11 Noroeste 23 Noroeste 0 905.5 1.6 69
2018-02-02 22:00:00 0.8 6 Noroeste 24 Noroeste 0 904.9 1.7 64
2018-02-02 21:00:00 1.5 7 Noroeste 24 Noroeste 0 904.5 2.4 61
2018-02-02 20:00:00 2.3 5 Norte 20 Noroeste 0 903.9 3 53
2018-02-02 19:00:00 2.9 6 Norte 30 Noroeste 0 903.2 2.9 44
2018-02-02 18:00:00 4.5 9 Noroeste 37 Nordeste 0 902.1 2.2 38
2018-02-02 17:00:00 6.2 9 Noroeste 36 Oeste 0 900.9 1.2 37
2018-02-02 16:00:00 6.6 11 Noroeste 45 Norte 0 900.3 0.5 31
2018-02-02 15:00:00 6.8 10 Noroeste 40 Oeste 0 899.9 -0.1 38
2018-02-02 14:00:00 6.3 10 Norte 32 Noroeste 0 899.7 0.1 40
2018-02-02 13:00:00 5.2 10 Noroeste 35 Norte 0 899.8 0.6 49
2018-02-02 12:00:00 4.1 11 Norte 34 Noroeste 0 900 1.5 54
2018-02-02 11:00:00 3.4 8 Norte 32 Norte 0 899.6 1.8 58
2018-02-02 10:00:00 1.3 7 Norte 30 Noroeste 0 899.2 1.5 70
2018-02-02 09:00:00 -0.8 7 Norte 23 Norte 0 898.5 1.1 78
2018-02-02 08:00:00 -1.1 3 Norte 22 Noroeste 0 897.8 0.4 79
2018-02-02 07:00:00 -1.2 7 Norte 25 Norte 0 897.7 0.2 80
2018-02-02 06:00:00 -1.2 5 Noroeste 17 Noroeste 0 897.4 0 81
2018-02-02 05:00:00 -0.8 6 Noroeste 24 Norte 0 897.4 -0.4 79
2018-02-02 04:00:00 -0.8 5 Norte 24 Norte 0 897.5 -0.7 80
2018-02-02 03:00:00 -0.3 6 Norte 21 Nordeste 0 897.4 -0.9 79
2018-02-02 02:00:00 0.1 5 Norte 19 Norte 0 897.8 0 80
2018-02-02 01:00:00 0.5 5 Norte 14 Norte 0 898.2 0.4 81
2018-02-02 00:00:00 0.7 4 Noroeste 14 Noroeste 0 898.3 0.1 85
2018-02-01 23:00:00 1 5 Norte 15 Norte 0 897.8 -0.8 88
2018-02-01 22:00:00 1.3 5 Norte 23 Norte 0 897.8 -0.3 89
2018-02-01 21:00:00 1.4 10 Norte 37 Norte 0.6 898.2 -0.1 93
2018-02-01 20:00:00 2.8 6 Norte 23 Norte 0 898.6 -0.3 92
2018-02-01 19:00:00 3.5 2 Norte 9 Norte 0 898.1 -1.2 88
2018-02-01 18:00:00 3.7 3 Norte 13 Nordeste 0.4 898.3 -1.4 88
2018-02-01 17:00:00 4.6 5 Norte 13 Norte 0 898.9 -2.1 82
2018-02-01 16:00:00 5.7 4 Norte 18 Norte 0 899.3 -2.9 74
2018-02-01 15:00:00 6.7 8 Norte 18 Nordeste 0 899.7 -3.2 60
2018-02-01 14:00:00 6.6 2 Norte 7 Norte 0 901 -2.3 65
2018-02-01 13:00:00 5.6 0 Calma 6 Oeste 0 902.2 -1.7 70
2018-02-01 12:00:00 2.8 3 Sur 5 Sur 0 902.9 -1 80
2018-02-01 11:00:00 1.3 3 Sudoeste 5 Oeste 0 903.3 -1.1 80
2018-02-01 10:00:00 0.2 0 Calma 5 Sudeste 0 903.9 -0.5 84
2018-02-01 09:00:00 -0.7 2 Sudeste 7 Norte 0 903.9 -0.9 85
2018-02-01 08:00:00 -1.2 2 Sur 6 Sudeste 0 904.4 -1.2 85
2018-02-01 07:00:00 -1 2 Sur 12 Noroeste 0 904.4 -2.1 84
2018-02-01 06:00:00 -1.3 0 Calma 11 Norte 0 904.8 -2.4 85
2018-02-01 05:00:00 -0.9 5 Norte 14 Noroeste 0 905.6 -2.1 85
2018-02-01 04:00:00 -0.9 2 Sur 8 Sudeste 0 906.5 -2 82
2018-02-01 03:00:00 -0.1 5 Norte 13 Norte 0 907.2 -2.1 80
2018-02-01 02:00:00 0.5 0 Calma 18 Norte 0 907.7 -1.8 77
2018-02-01 01:00:00 0.9 2 Sudoeste 4 Noroeste 0 908.5 -1.4 75
2018-02-01 00:00:00 1.7 2 Sudeste 13 Sudeste 0 909.3 -0.7 71
2018-01-31 23:00:00 2.9 2 Nordeste 10 Norte 0 909.5 -0.5 66
2018-01-31 22:00:00 4 3 Nordeste 14 Norte 0 909.9 -0.2 63
2018-01-31 21:00:00 5.7 5 Norte 12 Norte 0 910 0.5 56
2018-01-31 20:00:00 7.9 3 Este 8 Noroeste 0 910 -0.4 49
2018-01-31 19:00:00 10 4 Noroeste 19 Norte 0 910.1 -1.1 42
2018-01-31 18:00:00 12.8 4 Norte 17 Norte 0 909.5 -2.5 36
2018-01-31 17:00:00 14.4 3 Nordeste 8 Sudoeste 0 910.4 -2.7 29
2018-01-31 16:00:00 14.6 3 Sudeste 10 Sudoeste 0 911.2 -3.1 25
2018-01-31 15:00:00 13.8 4 Sudoeste 8 Norte 0 912 -3.2 32
2018-01-31 14:00:00 12.4 5 Oeste 8 Oeste 0 913.1 -2 40
2018-01-31 13:00:00 10 4 Oeste 8 Oeste 0 914.3 -0.7 45
2018-01-31 12:00:00 6.4 3 Oeste 5 Sudoeste 0 915.2 0.2 62
2018-01-31 11:00:00 4.4 2 Sudoeste 5 Oeste 0 915.1 0.1 67
2018-01-31 10:00:00 0.6 2 Sur 5 Sudoeste 0 915 0.2 82
2018-01-31 09:00:00 -1.6 2 Sudeste 7 Sudeste 0 915 0.2 91
2018-01-31 08:00:00 -1.8 0 Calma 4 Sudeste 0 915 0 88
2018-01-31 07:00:00 -1.5 3 Sur 4 Sur 0 914.8 -0.7 91
2018-01-31 06:00:00 -1.4 3 Sudeste 8 Nordeste 0 914.8 -1.2 89
2018-01-31 05:00:00 -0.9 0 Calma 4 Sur 0 915 -1.3 87
2018-01-31 04:00:00 -0.4 2 Sudoeste 3 Oeste 0 915.5 -1.4 86
2018-01-31 03:00:00 0.2 0 Calma 5 Norte 0 916 -1 84
2018-01-31 02:00:00 0.5 0 Calma 3 Oeste 0 916.3 -0.9 83
2018-01-31 01:00:00 1.4 0 Calma 3 Oeste 0 916.9 -0.4 80
2018-01-31 00:00:00 2.4 0 Calma 3 Sudoeste 0 917 0.1 78
2018-01-30 23:00:00 3.5 0 Calma 3 Nordeste 0 917.2 0.6 73
2018-01-30 22:00:00 4.7 0 Calma 5 Oeste 0 917.3 1 66
2018-01-30 21:00:00 6 2 Sudoeste 5 Sudeste 0 916.9 0.9 65
2018-01-30 20:00:00 7.7 4 Sudeste 8 Sudeste 0 916.6 0.5 56
2018-01-30 19:00:00 9.5 5 Sudeste 12 Sur 0 916.3 0 51
2018-01-30 18:00:00 12.1 9 Sur 19 Sudeste 0 916 -0.5 43
2018-01-30 17:00:00 14 9 Sur 19 Sur 0 916.1 -1.2 35
2018-01-30 16:00:00 14.2 9 Sur 26 Sudeste 0 916.3 -2 35
2018-01-30 15:00:00 13.4 12 Sur 28 Sudeste 0 916.5 -2.8 34
2018-01-30 14:00:00 12.3 14 Sur 27 Sur 0 917.3 -2.2 37
2018-01-30 13:00:00 11.6 14 Sur 25 Sudeste 0 918.3 -1.4 35
2018-01-30 12:00:00 8 4 Oeste 7 Noroeste 0 919.3 -0.4 58
2018-01-30 11:00:00 4.8 3 Noroeste 6 Noroeste 0 919.5 -0.3 72
2018-01-30 10:00:00 0.7 3 Sudoeste 4 Sudoeste 0 919.7 0.3 85
2018-01-30 09:00:00 -1.6 0 Calma 4 Este 0 919.7 0.2 96
2018-01-30 08:00:00 -1.6 3 Sudeste 5 Sur 0 919.8 0 94
2018-01-30 07:00:00 -1.3 2 Sudeste 4 Este 0 919.4 -0.6 94
2018-01-30 06:00:00 -0.8 2 Sur 4 Sudoeste 0 919.5 -1.3 93
2018-01-30 05:00:00 -0.1 0 Calma 5 Sur 0 919.8 -1 93
2018-01-30 04:00:00 0.4 3 Norte 7 Norte 0 920 -1.2 94
2018-01-30 03:00:00 0.6 2 Sur 8 Norte 0 920.8 -0.6 92
2018-01-30 02:00:00 1.3 0 Calma 6 Nordeste 0 920.8 -0.6 90
2018-01-30 01:00:00 2.2 0 Calma 10 Norte 0 921.2 -0.3 87
2018-01-30 00:00:00 3.1 0 Calma 5 Norte 0 921.4 0 84
2018-01-29 23:00:00 4.1 0 Calma 4 Norte 0 921.4 0.3 82
2018-01-29 22:00:00 5.1 0 Calma 5 Sudoeste 0 921.5 0.6 76
2018-01-29 21:00:00 6.4 2 Oeste 8 Sudeste 0 921.4 0.9 70
2018-01-29 20:00:00 7.7 6 Sudeste 10 Sudeste 0 921.1 0.3 65
2018-01-29 19:00:00 9.8 4 Sudeste 11 Sudeste 0 920.9 -0.2 56
2018-01-29 18:00:00 12.4 6 Sudoeste 15 Sur 0 920.5 -0.8 45
2018-01-29 17:00:00 14.4 5 Sur 13 Sur 0 920.8 -1.5 42
2018-01-29 16:00:00 14.3 6 Sudoeste 11 Sudoeste 0 921.1 -2.3 43
2018-01-29 15:00:00 13.7 4 Noroeste 14 Sudoeste 0 921.3 -3 44
2018-01-29 14:00:00 12.9 4 Sur 9 Sudoeste 0 922.3 -2.1 49
2018-01-29 13:00:00 10.9 4 Sudeste 9 Oeste 0 923.4 -0.9 57
2018-01-29 12:00:00 8.8 3 Oeste 6 Sudoeste 0 924.3 0 60
2018-01-29 11:00:00 5.7 3 Sudoeste 11 Sudeste 0 924.4 0.3 73
2018-01-29 10:00:00 2.8 3 Sur 6 Sur 0 924.3 0.6 87
2018-01-29 09:00:00 0.2 3 Sudeste 6 Este 0 924.3 0.6 96
2018-01-29 08:00:00 0.2 2 Sudoeste 5 Este 0 924.1 0.1 94
2018-01-29 07:00:00 0.7 2 Este 10 Norte 0 923.7 -0.6 94
2018-01-29 06:00:00 1.3 4 Norte 12 Norte 0 923.7 -0.9 93
2018-01-29 05:00:00 1.8 6 Norte 17 Norte 0 924 -1.1 91
2018-01-29 04:00:00 2.1 7 Norte 21 Nordeste 0 924.3 -0.9 89
2018-01-29 03:00:00 2.8 11 Norte 19 Nordeste 0 924.6 -0.6 87
2018-01-29 02:00:00 3.2 9 Norte 17 Nordeste 0 925.1 0.2 88
2018-01-29 01:00:00 3.3 0 Calma 6 Norte 0 925.2 0.8 87
2018-01-29 00:00:00 4.6 2 Sudeste 8 Sudeste 0 925.2 1.1 82
2018-01-28 23:00:00 5.5 2 Sudeste 18 Nordeste 0 924.9 1.5 80
2018-01-28 22:00:00 6.8 7 Este 20 Sudeste 0 924.4 1.5 74
2018-01-28 21:00:00 6.5 5 Norte 8 Norte 0 924.1 1.4 80
2018-01-28 20:00:00 7.4 4 Sur 24 Sudeste 0 923.4 0.8 74
2018-01-28 19:00:00 8.2 9 Este 26 Nordeste 0 922.9 0.5 72
2018-01-28 18:00:00 9.1 9 Sudeste 27 Este 0 922.7 0.7 71
2018-01-28 17:00:00 9.5 9 Este 27 Sudeste 0 922.6 0.2 69
2018-01-28 16:00:00 9.3 9 Este 27 Sudeste 0 922.4 0 66
2018-01-28 15:00:00 9 12 Este 26 Nordeste 0 922 0.2 69
2018-01-28 14:00:00 8.7 8 Este 26 Este 0 922.4 0.8 69
2018-01-28 13:00:00 9.2 10 Este 30 Sudeste 0 922.4 1.8 68
2018-01-28 12:00:00 9 12 Sudeste 27 Este 0 921.8 2.1 66
2018-01-28 11:00:00 9.3 12 Este 28 Nordeste 0 921.6 3.1 62
2018-01-28 10:00:00 8.4 7 Este 28 Este 0 920.6 2.3 65
2018-01-28 09:00:00 6.6 9 Este 37 Este 0 919.7 1.5 70
2018-01-28 08:00:00 3.5 6 Sudeste 19 Oeste 0 918.5 0.3 79
2018-01-28 07:00:00 3.9 6 Norte 19 Este 0 918.3 0.1 77
2018-01-28 06:00:00 2.6 2 Norte 7 Norte 0 918.2 -0.2 78
2018-01-28 05:00:00 2.4 4 Norte 14 Norte 0 918.2 0 77
2018-01-28 04:00:00 1.1 7 Norte 12 Norte 0 918.2 -0.5 78
2018-01-28 03:00:00 0.5 3 Norte 11 Nordeste 0 918.4 -0.8 78
2018-01-28 02:00:00 0.8 4 Nordeste 18 Nordeste 0 918.2 -1.1 75
2018-01-28 01:00:00 0.7 3 Norte 13 Norte 0 918.7 -0.8 75
2018-01-28 00:00:00 1 5 Norte 13 Norte 0 919.2 0 73
2018-01-27 23:00:00 1.4 5 Norte 11 Norte 0 919.3 0.5 72
2018-01-27 22:00:00 2.1 3 Noroeste 9 Nordeste 0 919.5 1.7 68
2018-01-27 21:00:00 3.2 4 Norte 15 Nordeste 0 919.2 2.1 63
2018-01-27 20:00:00 4.1 4 Norte 22 Nordeste 0 918.8 2.1 59
2018-01-27 19:00:00 4.8 6 Norte 22 Nordeste 0 917.8 1.8 55
2018-01-27 18:00:00 5.3 10 Nordeste 22 Este 0 917.1 1.5 52
2018-01-27 17:00:00 6.3 14 Este 32 Este 0 916.7 1.1 49
2018-01-27 16:00:00 8.4 12 Nordeste 28 Nordeste 0 916 0.1 43
2018-01-27 15:00:00 7.4 11 Nordeste 28 Nordeste 0 915.6 -0.3 45
2018-01-27 14:00:00 8.2 7 Norte 25 Nordeste 0 915.6 -0.1 44
2018-01-27 13:00:00 7.2 9 Nordeste 29 Nordeste 0 915.9 0.5 46
2018-01-27 12:00:00 6.9 10 Norte 23 Nordeste 0 915.9 0.6 49
2018-01-27 11:00:00 5.8 6 Norte 32 Norte 0 915.7 1.2 55
2018-01-27 10:00:00 3.2 9 Norte 26 Norte 0 915.4 1.4 73
2018-01-27 09:00:00 1.2 6 Norte 23 Norte 0 915.3 1.6 79
2018-01-27 08:00:00 1.5 5 Norte 22 Noroeste 0 914.5 0.7 78
2018-01-27 07:00:00 1.6 7 Norte 27 Noroeste 0 914 0.1 76
2018-01-27 06:00:00 1.9 9 Norte 31 Nordeste 0 913.7 -0.2 75
2018-01-27 05:00:00 1.8 9 Norte 21 Noroeste 0 913.8 -0.4 76
2018-01-27 04:00:00 1.5 5 Noroeste 18 Norte 0 913.9 -0.6 78
2018-01-27 03:00:00 1.5 6 Norte 22 Noroeste 0 913.9 -0.4 77
2018-01-27 02:00:00 1.8 7 Noroeste 20 Norte 0 914.2 0.6 80
2018-01-27 01:00:00 2.2 7 Noroeste 28 Noroeste 0 914.5 1.9 79
2018-01-27 00:00:00 2.6 6 Noroeste 25 Noroeste 0 914.3 1.7 78
2018-01-26 23:00:00 2.5 6 Noroeste 23 Noroeste 0 913.6 1.5 78
2018-01-26 22:00:00 2.8 8 Noroeste 27 Norte 0 912.6 1 74
2018-01-26 21:00:00 3.4 7 Noroeste 27 Norte 0 912.6 1.6 76
2018-01-26 20:00:00 3.7 9 Noroeste 30 Norte 0 912.1 1.7 74
2018-01-26 19:00:00 3.8 5 Noroeste 27 Norte 0 911.6 1.5 79
2018-01-26 18:00:00 4.5 8 Norte 27 Noroeste 0 911 1.3 74
2018-01-26 17:00:00 5.9 9 Norte 36 Noroeste 0 910.4 0.4 64
2018-01-26 16:00:00 6 8 Noroeste 33 Noroeste 0 910.1 -0.2 64
2018-01-26 15:00:00 6.2 9 Noroeste 32 Noroeste 0 909.7 -0.5 65
2018-01-26 14:00:00 5.9 11 Noroeste 38 Noroeste 0 910 0.4 68
2018-01-26 13:00:00 4.3 6 Noroeste 28 Noroeste 0 910.3 1.4 77
2018-01-26 12:00:00 2.9 9 Noroeste 33 Noroeste 0 910.2 2.5 81
2018-01-26 11:00:00 2.3 8 Noroeste 28 Norte 0 909.6 2.5 85
2018-01-26 10:00:00 1.6 9 Noroeste 31 Noroeste 0 908.9 2.3 88
2018-01-26 09:00:00 1.4 8 Noroeste 27 Norte 0 907.7 1.5 89
2018-01-26 08:00:00 1.6 9 Noroeste 27 Noroeste 0 907.1 1.4 94
2018-01-26 07:00:00 1.4 9 Noroeste 24 Noroeste 0.2 906.6 1 95
2018-01-26 06:00:00 1.3 8 Noroeste 25 Noroeste 0.4 906.2 0.9 97
2018-01-26 05:00:00 1.2 6 Norte 23 Norte 2 905.7 0.7 97
2018-01-26 04:00:00 1.6 7 Norte 26 Nordeste 1.6 905.6 0.2 95
2018-01-26 03:00:00 2.8 11 Noroeste 30 Noroeste 0.2 905.3 -0.5 94
2018-01-26 02:00:00 4.5 7 Oeste 16 Oeste 0 905 -1.1 96
2018-01-26 01:00:00 4.6 5 Noroeste 14 Oeste 0.4 905.4 -1.4 96
2018-01-26 00:00:00 4.7 3 Sur 13 Sudeste 0 905.8 -1.2 93
2018-01-25 23:00:00 4.9 3 Sudeste 13 Sudoeste 0.6 906.1 -1.6 92
2018-01-25 22:00:00 5.3 3 Noroeste 17 Sudoeste 2.2 906.8 -1.2 93
2018-01-25 21:00:00 5.5 5 Oeste 13 Oeste 1 907 -1.1 96
2018-01-25 20:00:00 5.4 4 Sur 17 Oeste 1.8 907.7 -0.3 93
2018-01-25 19:00:00 5.7 6 Oeste 18 Oeste 3 908 -0.3 91
2018-01-25 18:00:00 6.7 7 Sudoeste 23 Sudoeste 0.2 908.1 -0.7 88
2018-01-25 17:00:00 7.9 11 Sudoeste 22 Sudoeste 0 908 -1.7 79
2018-01-25 16:00:00 9.2 12 Sudoeste 23 Sudoeste 0 908.3 -2.3 74
2018-01-25 15:00:00 9.9 10 Sudoeste 29 Sudoeste 0 908.8 -2.7 73
2018-01-25 14:00:00 11.2 11 Oeste 29 Sudoeste 0 909.7 -2.1 64
2018-01-25 13:00:00 12.2 10 Sudoeste 22 Sudoeste 0 910.6 -1.5 61
2018-01-25 12:00:00 11.6 7 Sudoeste 14 Sudoeste 0 911.5 -0.9 61
2018-01-25 11:00:00 6.9 2 Sur 6 Sur 0 911.8 -0.6 73
2018-01-25 10:00:00 3.4 2 Sudoeste 4 Sudeste 0 912.1 -0.5 77
2018-01-25 09:00:00 1.4 2 Oeste 4 Oeste 0 912.4 -0.3 83
2018-01-25 08:00:00 1.5 0 Calma 3 Oeste 0 912.4 -0.7 84
2018-01-25 07:00:00 1.5 3 Oeste 4 Oeste 0 912.6 -1.1 84
2018-01-25 06:00:00 1.7 0 Calma 3 Oeste 0 912.7 -1.7 82
2018-01-25 05:00:00 1.8 0 Calma 2 Sudoeste 0 913.1 -1.7 81
2018-01-25 04:00:00 2.3 2 Sudeste 3 Este 0 913.7 -1.5 81
2018-01-25 03:00:00 2.6 0 Calma 4 Sur 0 914.4 -1.5 80
2018-01-25 02:00:00 3.4 2 Sudeste 7 Sudoeste 0 914.8 -1.1 75
2018-01-25 01:00:00 4.1 3 Noroeste 5 Oeste 0 915.2 -0.6 73
2018-01-25 00:00:00 4.7 0 Calma 4 Nordeste 0 915.9 -0.1 71
2018-01-24 23:00:00 5.7 3 Noroeste 5 Norte 0 915.9 -0.2 68
2018-01-24 22:00:00 6.7 0 Calma 3 Sur 0 915.8 0.1 62
2018-01-24 21:00:00 8.1 0 Calma 3 Noroeste 0 916 0.5 57
2018-01-24 20:00:00 10.1 0 Calma 3 Sudoeste 0 916.1 0.6 52
2018-01-24 19:00:00 12.6 2 Este 6 Oeste 0 915.7 0 42
2018-01-24 18:00:00 15.8 4 Sudoeste 10 Sudeste 0 915.5 -0.4 33
2018-01-24 17:00:00 17.9 4 Sur 12 Oeste 0 915.5 -1 29
2018-01-24 16:00:00 17.8 5 Oeste 18 Oeste 0 915.7 -1.7 28
2018-01-24 15:00:00 16.7 5 Oeste 12 Sur 0 915.9 -2.2 33
2018-01-24 14:00:00 16.8 5 Sudoeste 17 Sur 0 916.5 -1.8 37
2018-01-24 13:00:00 15.9 7 Sur 13 Sur 0 917.4 -0.7 40
2018-01-24 12:00:00 11.6 3 Oeste 5 Sudoeste 0 918.1 0.1 52
2018-01-24 11:00:00 7.2 3 Sudoeste 5 Noroeste 0 918.3 0.3 63
2018-01-24 10:00:00 3 3 Oeste 4 Noroeste 0 918.1 0.2 75
2018-01-24 09:00:00 0.2 0 Calma 3 Oeste 0 918 0.2 88
2018-01-24 08:00:00 0.3 0 Calma 4 Sudeste 0 918 0.1 84
2018-01-24 07:00:00 0.4 0 Calma 3 Sudeste 0 917.9 -0.3 86
2018-01-24 06:00:00 0.9 2 Oeste 3 Oeste 0 917.8 -0.6 84
2018-01-24 05:00:00 1.6 2 Este 4 Este 0 917.9 -0.5 82
2018-01-24 04:00:00 2 0 Calma 3 Sudoeste 0 918.2 -0.6 80
2018-01-24 03:00:00 2.5 0 Calma 2 Sudeste 0 918.4 -0.6 78
2018-01-24 02:00:00 3.4 0 Calma 4 Norte 0 918.4 -0.3 75
2018-01-24 01:00:00 4.4 3 Norte 5 Norte 0 918.8 0.4 71
2018-01-24 00:00:00 5.3 0 Calma 4 Norte 0 919 0.7 67
2018-01-23 23:00:00 6.1 0 Calma 5 Norte 0 918.7 0.5 63
2018-01-23 22:00:00 7.1 0 Calma 6 Nordeste 0 918.4 0.7 60
2018-01-23 21:00:00 9.2 4 Norte 7 Nordeste 0 918.3 1.1 52
2018-01-23 20:00:00 10.9 3 Norte 8 Norte 0 918.2 1.1 47
2018-01-23 19:00:00 13.5 2 Noroeste 9 Noroeste 0 917.7 0.9 45
2018-01-23 18:00:00 16.3 2 Noroeste 17 Noroeste 0 917.2 0.4 39
2018-01-23 17:00:00 18.2 6 Noroeste 16 Noroeste 0 917.1 -0.1 33
2018-01-23 16:00:00 18.6 9 Noroeste 19 Noroeste 0 916.8 -1.2 29
2018-01-23 15:00:00 18.2 6 Oeste 12 Oeste 0 916.8 -1.8 32
2018-01-23 14:00:00 16.1 3 Oeste 7 Oeste 0 917.2 -1.6 38
2018-01-23 13:00:00 13.7 4 Sur 8 Sur 0 918 -0.6 42
2018-01-23 12:00:00 10.3 3 Oeste 7 Noroeste 0 918.6 0.3 53
2018-01-23 11:00:00 6 3 Oeste 5 Sudoeste 0 918.8 0.9 66
2018-01-23 10:00:00 2.6 0 Calma 4 Sur 0 918.6 0.8 77
2018-01-23 09:00:00 -0.3 0 Calma 4 Sudeste 0 918.3 0.7 84
2018-01-23 08:00:00 -0.6 2 Sudeste 4 Sudeste 0 917.9 0.3 87
2018-01-23 07:00:00 -0.6 0 Calma 3 Sudoeste 0 917.8 0 86
2018-01-23 06:00:00 -0.1 0 Calma 4 Sudeste 0 917.6 -0.3 84
2018-01-23 05:00:00 0.2 0 Calma 2 Sudoeste 0 917.6 -0.4 82
2018-01-23 04:00:00 0.7 0 Calma 4 Sudeste 0 917.8 -0.4 82
2018-01-23 03:00:00 1.3 3 Sudeste 4 Sur 0 917.9 -0.4 80
2018-01-23 02:00:00 2.1 2 Sur 6 Oeste 0 918 0 77
2018-01-23 01:00:00 3.4 2 Sur 11 Norte 0 918.2 0.4 73
2018-01-23 00:00:00 4.4 6 Norte 14 Norte 0 918.3 0.7 65
2018-01-22 23:00:00 6.2 4 Noroeste 13 Norte 0 918 0.7 62
2018-01-22 22:00:00 7.4 2 Nordeste 10 Norte 0 917.8 1 59
2018-01-22 21:00:00 8.7 2 Sur 6 Oeste 0 917.6 1.5 66
2018-01-22 20:00:00 10.1 3 Oeste 9 Noroeste 0 917.3 1.2 60
2018-01-22 19:00:00 11.6 4 Noroeste 17 Oeste 0 916.8 1 60
2018-01-22 18:00:00 13.8 10 Noroeste 28 Noroeste 0 916.1 0.3 53
2018-01-22 17:00:00 16.8 10 Noroeste 24 Oeste 0 916.1 -0.2 44
2018-01-22 16:00:00 18.2 9 Noroeste 24 Noroeste 0 915.8 -1.6 41
2018-01-22 15:00:00 17.5 11 Noroeste 21 Oeste 0 915.8 -2.4 42
2018-01-22 14:00:00 17.4 6 Oeste 17 Noroeste 0 916.3 -2.1 46
2018-01-22 13:00:00 15.6 4 Noroeste 12 Oeste 0 917.4 -0.6 52
2018-01-22 12:00:00 12.8 4 Norte 13 Nordeste 0 918.2 0.4 56
2018-01-22 11:00:00 8.3 5 Noroeste 9 Norte 0 918.4 0.8 70
2018-01-22 10:00:00 5 3 Sudoeste 5 Oeste 0 918 0.4 82
2018-01-22 09:00:00 2.9 4 Sudeste 12 Nordeste 0 917.8 0.2 92
2018-01-22 08:00:00 4.1 4 Noroeste 15 Norte 0 917.6 -0.1 86
2018-01-22 07:00:00 4.2 4 Norte 15 Noroeste 0 917.6 -0.5 87
2018-01-22 06:00:00 4.8 5 Noroeste 17 Noroeste 0 917.6 -0.9 87
2018-01-22 05:00:00 5 5 Noroeste 16 Noroeste 0 917.7 -1.1 87
2018-01-22 04:00:00 5.4 5 Norte 14 Norte 0 918.1 -1 85
2018-01-22 03:00:00 6.4 6 Noroeste 11 Noroeste 0 918.5 -0.6 83
2018-01-22 02:00:00 7 5 Noroeste 14 Noroeste 0 918.8 -0.3 81
2018-01-22 01:00:00 7.6 7 Norte 21 Nordeste 0 919.1 0.1 80
2018-01-22 00:00:00 7.7 4 Norte 17 Norte 0 919.1 0.3 80